Time;durP1;ratioP1;P1;durP2;ratioP2;P2;SDS_P1;SDS_P2;PMS_P1;PMS_P2;Temp;Humidity;BMP_temperature;BMP_pressure;BME280_temperature;BME280_humidity;BME280_pressure;Samples;Min_cycle;Max_cycle;Signal;HPM_P1;HPM_P2
2021/12/15 00:01:45;;;;;;;0.60;0.20;;;-3.50;93.20;;;;;;2212249;64;20085;-33
2021/12/15 00:04:12;;;;;;;1.50;0.30;;;-3.50;93.40;;;;;;2212386;64;20101;-39
2021/12/15 00:06:38;;;;;;;2.30;1.40;;;-3.50;93.30;;;;;;2212505;64;20097;-32
2021/12/15 00:09:08;;;;;;;3.37;1.23;;;-3.50;93.10;;;;;;2212319;64;20101;-34
2021/12/15 00:11:37;;;;;;;2.30;0.50;;;-3.50;93.00;;;;;;2212378;64;20152;-31
2021/12/15 00:14:09;;;;;;;0.87;0.40;;;-3.50;93.10;;;;;;2212189;64;20088;-35
2021/12/15 00:16:36;;;;;;;3.03;0.80;;;-3.50;93.20;;;;;;2215786;64;20081;-33
2021/12/15 00:19:03;;;;;;;1.93;1.00;;;-3.50;93.10;;;;;;2213355;64;20092;-33
2021/12/15 00:21:30;;;;;;;1.70;0.50;;;-3.40;92.80;;;;;;2216433;64;20501;-32
2021/12/15 00:23:57;;;;;;;1.27;0.50;;;-3.50;93.00;;;;;;2216316;64;20168;-32
2021/12/15 00:26:23;;;;;;;2.30;0.50;;;-3.50;92.90;;;;;;2216576;64;20077;-33
2021/12/15 00:28:51;;;;;;;1.23;0.40;;;-3.50;92.90;;;;;;2208694;64;20089;-33
2021/12/15 00:31:18;;;;;;;1.90;0.37;;;-3.50;92.80;;;;;;2215340;64;20081;-33
2021/12/15 00:33:44;;;;;;;1.80;0.60;;;-3.50;93.00;;;;;;2212203;64;20077;-40
2021/12/15 00:36:12;;;;;;;1.20;0.60;;;-3.50;92.80;;;;;;2212369;64;20077;-33
2021/12/15 00:38:38;;;;;;;2.13;0.40;;;-3.50;92.70;;;;;;2212198;64;20141;-33
2021/12/15 00:41:05;;;;;;;1.10;0.50;;;-3.50;92.80;;;;;;2204391;64;20090;-35
2021/12/15 00:43:32;;;;;;;1.10;0.50;;;-3.50;92.70;;;;;;2207711;64;20170;-33
2021/12/15 00:45:59;;;;;;;2.57;0.30;;;-3.50;92.60;;;;;;2204296;64;20110;-41
2021/12/15 00:48:25;;;;;;;1.87;0.40;;;-3.50;92.60;;;;;;2211170;64;20532;-35
2021/12/15 00:50:52;;;;;;;1.00;0.20;;;-3.50;92.50;;;;;;2208199;64;20098;-35
2021/12/15 00:53:19;;;;;;;0.87;0.33;;;-3.40;92.40;;;;;;2208227;64;20117;-36
2021/12/15 00:55:45;;;;;;;5.57;0.57;;;-3.50;92.50;;;;;;2211641;64;20096;-48
2021/12/15 00:58:15;;;;;;;0.40;0.20;;;-3.40;92.60;;;;;;2208552;64;20093;-32
2021/12/15 01:00:47;;;;;;;4.53;0.47;;;-3.50;92.30;;;;;;2214468;64;20492;-32
2021/12/15 01:03:14;;;;;;;1.03;0.40;;;-3.50;92.00;;;;;;2212285;64;20100;-32
2021/12/15 01:05:47;;;;;;;1.30;0.30;;;-3.50;91.90;;;;;;2212064;64;20477;-32
2021/12/15 01:20:21;;;;;;;2.03;0.30;;;-3.50;91.80;;;;;;2215138;64;20164;-32
2021/12/15 01:22:50;;;;;;;2.20;0.40;;;-3.50;91.90;;;;;;2211877;64;20081;-32
2021/12/15 01:25:36;;;;;;;1.67;0.67;;;-3.50;91.80;;;;;;2211983;64;20088;-33
2021/12/15 01:28:02;;;;;;;4.33;0.50;;;-3.50;92.00;;;;;;2215219;64;20462;-33
2021/12/15 01:30:32;;;;;;;1.57;0.30;;;-3.50;92.00;;;;;;2215150;64;20547;-31
2021/12/15 01:32:59;;;;;;;1.00;0.40;;;-3.50;92.00;;;;;;2215292;64;20169;-35
2021/12/15 01:35:29;;;;;;;1.27;0.37;;;-3.50;92.00;;;;;;2215304;64;20093;-32
2021/12/15 01:37:56;;;;;;;8.63;0.60;;;-3.40;92.00;;;;;;2215327;64;20097;-33
2021/12/15 01:40:33;;;;;;;1.87;0.40;;;-3.50;92.00;;;;;;2215333;64;20097;-31
2021/12/15 01:43:19;;;;;;;1.60;0.30;;;-3.40;91.90;;;;;;2211931;64;20291;-38
2021/12/15 01:49:07;;;;;;;1.33;0.30;;;-3.50;91.60;;;;;;2216150;64;20485;-33
2021/12/15 01:51:42;;;;;;;5.63;0.90;;;-3.40;91.90;;;;;;2209855;64;20254;-44
2021/12/15 01:54:14;;;;;;;2.30;0.20;;;-3.40;91.90;;;;;;2216146;64;20571;-38
2021/12/15 01:56:41;;;;;;;2.87;0.30;;;-3.40;91.70;;;;;;2216083;64;20162;-33
2021/12/15 01:59:08;;;;;;;0.80;0.30;;;-3.50;91.50;;;;;;2216093;64;20073;-33
2021/12/15 02:01:34;;;;;;;4.63;0.63;;;-3.50;91.50;;;;;;2216069;64;20123;-32
2021/12/15 02:04:01;;;;;;;1.30;0.30;;;-3.40;91.60;;;;;;2216094;64;20081;-32
2021/12/15 02:06:28;;;;;;;2.70;0.47;;;-3.40;91.40;;;;;;2216228;64;20552;-33
2021/12/15 02:08:54;;;;;;;4.10;0.40;;;-3.40;91.40;;;;;;2216107;64;20206;-33
2021/12/15 02:11:21;;;;;;;9.43;0.60;;;-3.40;91.50;;;;;;2216153;64;20108;-32
2021/12/15 02:13:48;;;;;;;1.50;0.83;;;-3.50;91.40;;;;;;2215926;64;20081;-37
2021/12/15 02:16:14;;;;;;;2.83;0.30;;;-3.50;91.50;;;;;;2216091;64;20089;-32
2021/12/15 02:18:42;;;;;;;4.73;0.40;;;-3.40;91.50;;;;;;2215923;64;20227;-33
2021/12/15 02:21:19;;;;;;;0.43;0.20;;;-3.40;91.30;;;;;;2215984;64;20546;-33
2021/12/15 02:23:51;;;;;;;3.27;0.40;;;-3.40;91.30;;;;;;2216195;64;20138;-34
2021/12/15 02:26:37;;;;;;;0.93;0.30;;;-3.40;91.40;;;;;;2216295;64;20103;-43
2021/12/15 02:29:07;;;;;;;0.70;0.40;;;-3.40;91.20;;;;;;2216166;64;20108;-32
2021/12/15 02:31:55;;;;;;;4.10;0.50;;;-3.40;91.20;;;;;;2216043;64;20579;-34
2021/12/15 02:39:38;;;;;;;1.10;0.40;;;-3.40;91.10;;;;;;2211089;64;20585;-34
2021/12/15 02:42:05;;;;;;;1.70;0.37;;;-3.30;91.20;;;;;;2207920;64;20101;-33
2021/12/15 02:44:31;;;;;;;1.70;0.30;;;-3.40;91.20;;;;;;2204719;64;20100;-33
2021/12/15 02:46:58;;;;;;;1.10;0.43;;;-3.30;91.20;;;;;;2210476;64;20270;-34
2021/12/15 02:49:29;;;;;;;3.23;0.40;;;-3.40;91.10;;;;;;2218917;64;20093;-33
2021/12/15 02:51:57;;;;;;;1.37;0.33;;;-3.40;91.30;;;;;;2215743;64;20096;-32
2021/12/15 02:54:25;;;;;;;5.97;0.40;;;-3.40;91.50;;;;;;2215802;64;20476;-32
2021/12/15 02:56:53;;;;;;;5.47;0.50;;;-3.40;91.60;;;;;;2218898;64;20107;-43
2021/12/15 02:59:31;;;;;;;7.80;0.70;;;-3.30;91.40;;;;;;2215766;64;20088;-47
2021/12/15 03:02:10;;;;;;;3.47;0.43;;;-3.30;91.40;;;;;;2215545;64;20179;-35
2021/12/15 03:04:43;;;;;;;2.33;0.67;;;-3.30;91.30;;;;;;2215525;64;20088;-34
2021/12/15 03:07:17;;;;;;;1.27;0.30;;;-3.30;91.20;;;;;;2215369;64;20496;-32
2021/12/15 03:15:30;;;;;;;9.10;0.50;;;-3.20;91.80;;;;;;2215933;64;20099;-33
2021/12/15 03:18:00;;;;;;;0.97;0.40;;;-3.20;91.80;;;;;;2211558;64;20100;-33
2021/12/15 03:20:32;;;;;;;2.67;0.57;;;-3.20;92.50;;;;;;2211768;64;20082;-32
2021/12/15 03:22:59;;;;;;;1.13;0.33;;;-3.30;93.10;;;;;;2211674;64;20112;-34
2021/12/15 03:25:29;;;;;;;1.13;0.30;;;-3.40;94.10;;;;;;2215101;64;20081;-33
2021/12/15 03:36:39;;;;;;;1.30;0.50;;;-3.60;96.00;;;;;;2211680;64;20097;-35
2021/12/15 03:39:11;;;;;;;2.43;0.30;;;-3.70;96.30;;;;;;2211479;64;20069;-33
2021/12/15 03:41:39;;;;;;;2.20;0.50;;;-3.70;96.70;;;;;;2214739;64;20092;-35
2021/12/15 03:44:06;;;;;;;0.93;0.30;;;-3.70;96.90;;;;;;2211576;64;20604;-35
2021/12/15 03:46:33;;;;;;;3.07;0.53;;;-3.60;96.90;;;;;;2215536;64;20104;-33
2021/12/15 03:48:59;;;;;;;1.30;0.77;;;-3.70;96.70;;;;;;2215397;64;20184;-38
2021/12/15 03:51:26;;;;;;;0.73;0.20;;;-3.70;97.00;;;;;;2215588;64;20092;-35
2021/12/15 03:53:53;;;;;;;1.33;0.50;;;-3.60;97.00;;;;;;2215342;64;20287;-47
2021/12/15 03:56:19;;;;;;;1.73;0.30;;;-3.60;96.70;;;;;;2215693;64;20097;-34
2021/12/15 03:58:47;;;;;;;0.33;0.20;;;-3.60;96.50;;;;;;2216064;64;20096;-34
2021/12/15 04:01:17;;;;;;;0.37;0.30;;;-3.60;96.30;;;;;;2213349;64;20085;-34
2021/12/15 04:03:46;;;;;;;2.23;0.40;;;-3.70;96.20;;;;;;2216635;64;20168;-33
2021/12/15 04:06:18;;;;;;;1.97;0.50;;;-3.70;96.50;;;;;;2216488;64;20095;-33
2021/12/15 04:08:45;;;;;;;1.90;0.30;;;-3.70;96.40;;;;;;2216538;64;20523;-33
2021/12/15 04:11:13;;;;;;;2.67;0.40;;;-3.70;96.00;;;;;;2216361;64;20247;-35
2021/12/15 04:13:40;;;;;;;1.17;0.60;;;-3.70;96.10;;;;;;2219662;64;20500;-34
2021/12/15 04:16:09;;;;;;;1.90;0.30;;;-3.70;95.90;;;;;;2216591;64;20089;-33
2021/12/15 04:18:36;;;;;;;1.07;0.30;;;-3.70;95.60;;;;;;2216377;64;20097;-33
2021/12/15 04:21:04;;;;;;;2.17;0.40;;;-3.70;95.60;;;;;;2216568;64;20077;-36
2021/12/15 04:23:31;;;;;;;3.73;0.70;;;-3.70;95.50;;;;;;2216310;64;20544;-35
2021/12/15 04:26:00;;;;;;;3.60;0.57;;;-3.70;95.50;;;;;;2216380;64;20632;-35
2021/12/15 04:28:34;;;;;;;0.77;0.50;;;-3.70;95.50;;;;;;2216598;64;20097;-33
2021/12/15 04:31:04;;;;;;;1.93;0.40;;;-3.60;95.50;;;;;;2216407;64;20119;-35
2021/12/15 04:33:42;;;;;;;0.60;0.43;;;-3.60;95.30;;;;;;2219779;64;20164;-34
2021/12/15 04:36:09;;;;;;;0.40;0.30;;;-3.60;95.30;;;;;;2216330;64;20798;-35
2021/12/15 04:38:36;;;;;;;3.27;0.80;;;-3.50;95.30;;;;;;2216522;64;20093;-35
2021/12/15 04:41:05;;;;;;;0.70;0.50;;;-3.50;95.60;;;;;;2216347;64;20519;-33
2021/12/15 04:43:34;;;;;;;1.43;0.40;;;-3.40;95.90;;;;;;2219603;64;20097;-37
2021/12/15 04:46:02;;;;;;;6.63;0.57;;;-3.40;95.90;;;;;;2219736;64;20106;-36
2021/12/15 04:48:29;;;;;;;0.63;0.43;;;-3.30;96.00;;;;;;2219686;64;20130;-38
2021/12/15 04:50:56;;;;;;;2.83;0.50;;;-3.20;95.20;;;;;;2219375;64;20528;-36
2021/12/15 04:53:22;;;;;;;3.83;0.50;;;-3.30;94.90;;;;;;2216414;64;20553;-34
2021/12/15 04:55:49;;;;;;;3.33;0.57;;;-3.30;94.80;;;;;;2219429;64;20096;-37
2021/12/15 04:58:15;;;;;;;1.97;0.60;;;-3.30;95.10;;;;;;2216414;64;20181;-33
2021/12/15 05:00:49;;;;;;;2.13;0.80;;;-3.30;95.00;;;;;;2219634;64;20093;-34
2021/12/15 05:03:16;;;;;;;2.83;0.60;;;-3.30;95.20;;;;;;2215087;64;20169;-36
2021/12/15 05:05:42;;;;;;;1.83;0.73;;;-3.40;95.50;;;;;;2211875;64;20112;-33
2021/12/15 05:08:09;;;;;;;2.13;0.80;;;-3.40;95.60;;;;;;2211857;64;20100;-34
2021/12/15 05:10:36;;;;;;;1.80;0.90;;;-3.40;95.90;;;;;;2211944;64;20133;-35
2021/12/15 05:13:03;;;;;;;6.63;0.80;;;-3.40;96.00;;;;;;2211995;64;20166;-34
2021/12/15 05:15:30;;;;;;;3.53;0.67;;;-3.40;95.90;;;;;;2215232;64;20103;-35
2021/12/15 05:17:57;;;;;;;3.63;1.10;;;-3.40;95.70;;;;;;2215249;64;20111;-34
2021/12/15 05:20:25;;;;;;;2.53;0.83;;;-3.40;95.90;;;;;;2212127;64;20203;-34
2021/12/15 05:22:52;;;;;;;5.47;0.73;;;-3.40;95.90;;;;;;2215060;64;20259;-34
2021/12/15 05:25:18;;;;;;;2.33;0.30;;;-3.40;96.00;;;;;;2211979;64;20093;-34
2021/12/15 05:27:45;;;;;;;9.37;1.07;;;-3.30;96.20;;;;;;2212154;64;20144;-33
2021/12/15 05:30:13;;;;;;;3.57;0.97;;;-3.40;95.90;;;;;;2208856;64;20111;-33
2021/12/15 05:32:40;;;;;;;4.30;0.80;;;-3.40;96.00;;;;;;2212074;64;20082;-34
2021/12/15 05:35:09;;;;;;;1.30;0.57;;;-3.40;96.00;;;;;;2215123;64;20545;-34
2021/12/15 05:37:37;;;;;;;9.13;1.00;;;-3.30;96.20;;;;;;2219579;64;20093;-36
2021/12/15 05:40:05;;;;;;;1.90;0.50;;;-3.20;96.30;;;;;;2219506;64;20148;-36
2021/12/15 05:42:32;;;;;;;1.97;0.80;;;-3.20;95.90;;;;;;2219404;64;20172;-36
2021/12/15 05:44:58;;;;;;;2.03;0.80;;;-3.20;95.60;;;;;;2219321;64;20093;-34
2021/12/15 05:47:26;;;;;;;4.13;0.50;;;-3.20;95.50;;;;;;2221568;64;20096;-34
2021/12/15 05:49:53;;;;;;;0.73;0.30;;;-3.10;95.60;;;;;;2219995;64;20181;-34
2021/12/15 05:52:20;;;;;;;1.70;0.50;;;-3.20;95.30;;;;;;2220119;64;20089;-33
2021/12/15 05:54:47;;;;;;;3.27;1.13;;;-3.10;95.30;;;;;;2220103;64;20081;-33
2021/12/15 05:57:13;;;;;;;2.47;0.60;;;-3.10;95.20;;;;;;2216782;64;20092;-38
2021/12/15 05:59:40;;;;;;;1.90;0.60;;;-3.10;95.10;;;;;;2223225;64;20214;-37
2021/12/15 06:02:07;;;;;;;1.50;0.70;;;-3.10;95.20;;;;;;2219988;64;20515;-35
2021/12/15 06:04:34;;;;;;;3.30;0.70;;;-3.10;95.10;;;;;;2219884;64;20088;-34
2021/12/15 06:07:01;;;;;;;5.87;1.43;;;-3.10;95.10;;;;;;2219941;64;20552;-38
2021/12/15 06:09:27;;;;;;;10.50;0.90;;;-3.10;95.20;;;;;;2220120;64;20108;-34
2021/12/15 06:11:54;;;;;;;4.83;1.53;;;-3.00;95.10;;;;;;2219902;64;20558;-33
2021/12/15 06:14:26;;;;;;;3.57;1.30;;;-3.10;94.90;;;;;;2219881;64;20678;-35
2021/12/15 06:16:56;;;;;;;1.77;0.50;;;-3.00;95.20;;;;;;2220029;64;20170;-35
2021/12/15 06:19:23;;;;;;;4.13;0.93;;;-2.90;95.40;;;;;;2220033;64;20181;-34
2021/12/15 06:21:49;;;;;;;5.30;0.97;;;-3.00;95.40;;;;;;2219855;64;20298;-34
2021/12/15 06:24:16;;;;;;;3.13;1.40;;;-2.90;95.40;;;;;;2220077;64;20160;-35
2021/12/15 06:26:43;;;;;;;6.80;0.83;;;-2.90;95.20;;;;;;2222971;64;20525;-34
2021/12/15 06:29:09;;;;;;;4.13;1.13;;;-2.90;95.30;;;;;;2223105;64;20607;-34
2021/12/15 06:31:38;;;;;;;3.17;1.00;;;-2.90;95.40;;;;;;2219817;64;20579;-37
2021/12/15 06:34:05;;;;;;;4.40;1.03;;;-2.90;95.50;;;;;;2219976;64;20101;-39
2021/12/15 06:36:33;;;;;;;7.13;1.60;;;-3.00;95.50;;;;;;2219992;64;20182;-43
2021/12/15 06:39:01;;;;;;;6.20;1.33;;;-3.10;95.80;;;;;;2220058;64;20162;-34
2021/12/15 06:41:27;;;;;;;3.80;0.73;;;-3.10;96.00;;;;;;2220004;64;20093;-33
2021/12/15 06:43:56;;;;;;;6.27;1.40;;;-3.10;96.10;;;;;;2219724;64;20115;-34
2021/12/15 06:59:54;;;;;;;7.20;1.17;;;-3.00;96.30;;;;;;2219911;64;20552;-34
2021/12/15 07:02:21;;;;;;;3.50;1.13;;;-3.00;96.30;;;;;;2223194;64;20111;-33
2021/12/15 07:04:47;;;;;;;9.13;1.07;;;-2.90;96.10;;;;;;2219831;64;20557;-33
2021/12/15 07:07:14;;;;;;;4.20;1.33;;;-2.80;96.30;;;;;;2222901;64;20545;-33
2021/12/15 07:09:40;;;;;;;9.13;1.97;;;-2.80;96.10;;;;;;2222825;64;20111;-34
2021/12/15 07:12:07;;;;;;;4.70;1.00;;;-2.80;96.20;;;;;;2222987;64;20084;-34
2021/12/15 07:14:35;;;;;;;5.10;0.93;;;-2.90;96.00;;;;;;2223146;64;20076;-46
2021/12/15 07:17:08;;;;;;;5.23;0.93;;;-2.90;96.10;;;;;;2223158;64;20106;-34
2021/12/15 07:19:52;;;;;;;2.00;0.70;;;-2.90;96.10;;;;;;2219855;64;20156;-38
2021/12/15 07:22:33;;;;;;;1.80;0.80;;;-2.80;96.30;;;;;;2223115;64;20089;-35
2021/12/15 07:25:00;;;;;;;4.97;0.93;;;-2.80;96.10;;;;;;2223020;64;20174;-34
2021/12/15 07:27:27;;;;;;;2.53;0.93;;;-2.80;96.00;;;;;;2222994;64;20095;-35
2021/12/15 07:29:54;;;;;;;6.97;0.97;;;-2.90;96.10;;;;;;2219689;64;20108;-40
2021/12/15 07:32:20;;;;;;;4.53;0.80;;;-2.90;96.30;;;;;;2222837;64;20122;-36
2021/12/15 07:34:47;;;;;;;4.20;1.07;;;-2.90;96.40;;;;;;2223623;64;20145;-37
2021/12/15 07:37:13;;;;;;;1.80;0.50;;;-2.80;96.40;;;;;;2217158;64;20140;-37
2021/12/15 07:39:47;;;;;;;2.60;0.77;;;-2.80;96.40;;;;;;2223619;64;20177;-34
2021/12/15 07:42:15;;;;;;;8.67;0.90;;;-2.80;96.50;;;;;;2223411;64;20602;-35
2021/12/15 07:44:41;;;;;;;2.37;0.80;;;-2.80;96.50;;;;;;2223495;64;20100;-35
2021/12/15 07:47:08;;;;;;;2.47;0.40;;;-2.70;96.20;;;;;;2222628;64;20617;-37
2021/12/15 07:49:35;;;;;;;1.80;0.50;;;-2.60;96.20;;;;;;2220403;64;20167;-33
2021/12/15 07:52:04;;;;;;;0.93;0.40;;;-2.70;96.10;;;;;;2223744;64;20084;-34
2021/12/15 07:54:33;;;;;;;1.53;0.30;;;-2.60;96.10;;;;;;2220508;64;20160;-34
2021/12/15 07:57:02;;;;;;;0.30;0.20;;;-2.60;96.20;;;;;;2217416;64;20085;-33
2021/12/15 07:59:28;;;;;;;0.40;0.20;;;-2.70;96.30;;;;;;2220348;64;20146;-32
2021/12/15 08:01:55;;;;;;;1.20;0.40;;;-2.60;96.50;;;;;;2220276;64;20093;-32
2021/12/15 08:04:21;;;;;;;1.03;0.20;;;-2.70;96.20;;;;;;2220262;64;20213;-34
2021/12/15 08:06:48;;;;;;;0.50;0.40;;;-2.70;96.30;;;;;;2220247;64;20167;-32
2021/12/15 08:09:15;;;;;;;5.07;0.37;;;-2.60;96.40;;;;;;2220388;64;20152;-34
2021/12/15 08:11:42;;;;;;;0.87;0.40;;;-2.50;96.60;;;;;;2220370;64;20119;-32
2021/12/15 08:14:08;;;;;;;0.50;0.30;;;-2.50;96.40;;;;;;2220396;64;20095;-34
2021/12/15 08:16:35;;;;;;;0.97;0.27;;;-2.60;96.50;;;;;;2220350;64;20084;-42
2021/12/15 08:19:02;;;;;;;0.67;0.30;;;-2.60;96.40;;;;;;2220035;64;20529;-34
2021/12/15 08:21:28;;;;;;;0.87;0.30;;;-2.60;96.30;;;;;;2220253;64;20095;-38
2021/12/15 08:23:56;;;;;;;0.60;0.30;;;-2.50;96.50;;;;;;2220354;64;20093;-34
2021/12/15 08:26:22;;;;;;;0.70;0.40;;;-2.60;96.50;;;;;;2220236;64;20089;-33
2021/12/15 08:28:49;;;;;;;1.03;0.60;;;-2.60;96.90;;;;;;2220259;64;20119;-33
2021/12/15 08:31:16;;;;;;;0.50;0.30;;;-2.70;96.80;;;;;;2219997;64;20101;-34
2021/12/15 08:33:42;;;;;;;0.93;0.30;;;-2.60;97.10;;;;;;2223231;64;20126;-34
2021/12/15 08:36:10;;;;;;;0.33;0.30;;;-2.60;97.30;;;;;;2223160;64;20114;-47
2021/12/15 08:38:38;;;;;;;2.40;0.20;;;-2.60;97.70;;;;;;2219833;64;20193;-38
2021/12/15 08:41:08;;;;;;;1.00;0.30;;;-2.60;97.40;;;;;;2220000;64;20464;-34
2021/12/15 08:43:35;;;;;;;1.50;0.30;;;-2.40;97.50;;;;;;2223591;64;20112;-35
2021/12/15 08:46:13;;;;;;;1.33;0.30;;;-2.40;97.40;;;;;;2219879;64;20503;-34
2021/12/15 08:48:40;;;;;;;0.60;0.30;;;-2.50;97.10;;;;;;2219633;64;20097;-40
2021/12/15 08:51:08;;;;;;;2.73;0.30;;;-2.60;97.30;;;;;;2216549;64;20186;-33
2021/12/15 08:53:35;;;;;;;0.40;0.23;;;-2.50;97.70;;;;;;2216322;64;20541;-33
2021/12/15 08:56:02;;;;;;;0.30;0.20;;;-2.40;97.50;;;;;;2219500;64;20181;-32
2021/12/15 08:58:29;;;;;;;0.73;0.20;;;-2.30;97.20;;;;;;2216421;64;20089;-33
2021/12/15 09:00:57;;;;;;;0.53;0.20;;;-2.20;97.10;;;;;;2216186;64;20111;-34
2021/12/15 09:03:24;;;;;;;0.20;0.20;;;-2.30;96.60;;;;;;2216430;64;20167;-33
2021/12/15 09:05:52;;;;;;;1.20;0.50;;;-2.20;96.00;;;;;;2216339;64;20152;-33
2021/12/15 09:08:19;;;;;;;0.30;0.20;;;-2.20;95.70;;;;;;2216366;64;20104;-36
2021/12/15 09:10:46;;;;;;;1.90;0.30;;;-2.30;95.40;;;;;;2212889;64;20119;-35
2021/12/15 09:13:13;;;;;;;0.40;0.23;;;-2.30;95.80;;;;;;2216277;64;20160;-34
2021/12/15 09:15:40;;;;;;;0.60;0.27;;;-2.30;96.10;;;;;;2213222;64;20157;-32
2021/12/15 09:18:07;;;;;;;0.20;0.20;;;-2.30;96.00;;;;;;2216333;64;20613;-34
2021/12/15 09:20:34;;;;;;;0.87;0.30;;;-2.40;96.30;;;;;;2216251;64;20494;-34
2021/12/15 09:23:02;;;;;;;1.90;0.30;;;-2.40;96.20;;;;;;2216092;64;20073;-35
2021/12/15 09:25:29;;;;;;;0.30;0.20;;;-2.30;96.40;;;;;;2219458;64;20149;-33
2021/12/15 09:28:05;;;;;;;1.20;0.30;;;-2.30;96.10;;;;;;2210118;64;20081;-33
2021/12/15 09:30:33;;;;;;;1.67;0.50;;;-2.30;96.50;;;;;;2216060;64;20089;-35
2021/12/15 09:32:59;;;;;;;0.70;0.50;;;-2.40;96.70;;;;;;2216080;64;20096;-34
2021/12/15 09:35:31;;;;;;;2.43;1.23;;;-2.40;96.80;;;;;;2216103;64;20593;-32
2021/12/15 09:37:57;;;;;;;0.40;0.37;;;-2.40;96.50;;;;;;2219359;64;20097;-33
2021/12/15 09:40:24;;;;;;;0.53;0.37;;;-2.40;96.40;;;;;;2216210;64;20148;-33
2021/12/15 09:42:51;;;;;;;1.23;0.50;;;-2.40;96.20;;;;;;2216031;64;20096;-36
2021/12/15 10:04:29;;;;;;;0.88;0.30;;;-2.20;94.80;;;;;;2219906;64;20519;-35
2021/12/15 10:18:09;;;;;;;0.87;0.40;;;-2.20;94.30;;;;;;2220473;64;20096;-34
2021/12/15 10:20:38;;;;;;;2.10;0.40;;;-2.30;94.60;;;;;;2219989;64;20163;-33
2021/12/15 10:23:12;;;;;;;1.30;0.40;;;-2.20;95.10;;;;;;2220095;64;20100;-33
2021/12/15 10:25:45;;;;;;;0.83;0.50;;;-2.20;94.90;;;;;;2219997;64;20092;-38
2021/12/15 10:28:20;;;;;;;1.53;0.53;;;-2.20;95.20;;;;;;2220210;64;20152;-37
2021/12/15 10:30:49;;;;;;;2.00;0.70;;;-2.20;95.20;;;;;;2219909;64;20092;-41
2021/12/15 10:33:30;;;;;;;2.40;0.60;;;-2.20;95.00;;;;;;2219950;64;20093;-49
2021/12/15 10:35:57;;;;;;;1.20;0.53;;;-2.30;95.30;;;;;;2220011;64;20172;-34
2021/12/15 10:38:31;;;;;;;0.83;0.50;;;-2.30;95.30;;;;;;2219854;64;20472;-37
2021/12/15 10:41:13;;;;;;;0.93;0.50;;;-2.30;95.40;;;;;;2219940;64;20097;-34
2021/12/15 10:43:54;;;;;;;1.23;0.67;;;-2.30;95.80;;;;;;2219811;64;20567;-35
2021/12/15 10:46:28;;;;;;;2.37;0.40;;;-2.30;95.40;;;;;;2216704;64;20088;-34
2021/12/15 10:49:11;;;;;;;1.93;1.03;;;-2.20;95.20;;;;;;2219927;64;20092;-34
2021/12/15 10:51:50;;;;;;;1.57;0.70;;;-2.30;95.00;;;;;;2219771;64;20084;-32
2021/12/15 10:54:25;;;;;;;2.97;0.60;;;-2.30;95.30;;;;;;2219826;64;20586;-46
2021/12/15 10:56:55;;;;;;;3.33;1.02;;;-2.30;95.10;;;;;;2219820;64;20173;-33
2021/12/15 10:59:23;;;;;;;1.60;0.90;;;-2.50;95.60;;;;;;2223170;64;20085;-33
2021/12/15 11:02:12;;;;;;;2.13;0.90;;;-2.50;95.60;;;;;;2222886;64;20095;-33
2021/12/15 11:04:50;;;;;;;1.87;0.80;;;-2.40;95.60;;;;;;2222875;64;20073;-32
2021/12/15 11:07:39;;;;;;;3.57;0.93;;;-2.40;95.60;;;;;;2223061;64;20480;-33
2021/12/15 11:10:11;;;;;;;2.83;1.23;;;-2.40;95.70;;;;;;2220527;64;20152;-35
2021/12/15 11:12:49;;;;;;;2.43;0.97;;;-2.40;95.50;;;;;;2223808;64;20096;-33
2021/12/15 11:15:18;;;;;;;3.37;1.50;;;-2.40;95.90;;;;;;2223726;64;20445;-37
2021/12/15 11:17:47;;;;;;;2.30;1.30;;;-2.30;96.00;;;;;;2220571;64;20085;-33
2021/12/15 11:20:17;;;;;;;3.00;1.10;;;-2.30;96.00;;;;;;2220682;64;20136;-35
2021/12/15 11:22:49;;;;;;;2.93;1.00;;;-2.40;96.20;;;;;;2223782;64;20104;-33
2021/12/15 11:25:18;;;;;;;4.23;1.33;;;-2.40;96.30;;;;;;2217461;64;20102;-33
2021/12/15 11:27:53;;;;;;;6.67;1.40;;;-2.50;96.40;;;;;;2220464;64;20092;-36
2021/12/15 11:30:24;;;;;;;;;;;-2.50;96.20;;;;;;2220491;64;20604;-33
2021/12/15 11:32:52;;;;;;;4.13;1.40;;;-2.60;96.40;;;;;;2223683;64;20517;-34
2021/12/15 11:35:28;;;;;;;2.77;1.17;;;-2.60;96.40;;;;;;2217079;64;20107;-43
2021/12/15 11:38:07;;;;;;;5.37;1.90;;;-2.60;96.70;;;;;;2215241;64;20097;-33
2021/12/15 11:40:40;;;;;;;6.87;1.70;;;-2.60;97.00;;;;;;2212375;64;20173;-34
2021/12/15 11:43:07;;;;;;;6.30;2.20;;;-2.70;97.30;;;;;;2215377;64;20500;-37
2021/12/15 11:45:36;;;;;;;5.17;1.33;;;-2.70;97.20;;;;;;2212205;64;20156;-35
2021/12/15 11:48:18;;;;;;;4.63;1.63;;;-2.70;97.30;;;;;;2212239;64;20151;-34
2021/12/15 11:50:45;;;;;;;6.17;2.13;;;-2.70;97.40;;;;;;2208481;64;20159;-34
2021/12/15 11:53:32;;;;;;;7.67;2.60;;;-2.80;97.60;;;;;;2208251;64;20085;-34
2021/12/15 11:56:25;;;;;;;10.20;2.13;;;-2.70;97.70;;;;;;2208410;64;20152;-33
2021/12/15 11:58:55;;;;;;;8.80;2.30;;;-2.70;97.60;;;;;;2208236;64;20089;-35
2021/12/15 12:01:39;;;;;;;4.70;1.50;;;-2.70;97.50;;;;;;2211442;64;20152;-34
2021/12/15 12:04:39;;;;;;;7.10;2.27;;;-2.70;97.40;;;;;;2208162;64;20152;-33
2021/12/15 12:07:15;;;;;;;4.37;1.70;;;-2.60;97.20;;;;;;2197562;65;20093;-34
2021/12/15 12:09:43;;;;;;;6.33;2.20;;;-2.70;97.20;;;;;;2204293;64;20554;-33
2021/12/15 12:12:10;;;;;;;4.40;2.17;;;-2.80;97.40;;;;;;2210922;64;20100;-34
2021/12/15 12:14:43;;;;;;;5.17;1.83;;;-2.80;97.30;;;;;;2207766;64;20615;-33
2021/12/15 12:17:13;;;;;;;5.20;2.53;;;-2.80;97.50;;;;;;2210826;64;20229;-33
2021/12/15 12:19:45;;;;;;;4.63;2.33;;;-2.90;97.70;;;;;;2207609;64;20106;-33
2021/12/15 12:22:12;;;;;;;7.03;2.07;;;-2.90;97.80;;;;;;2210945;64;20109;-35
2021/12/15 12:24:39;;;;;;;10.20;2.30;;;-2.90;97.80;;;;;;2210845;64;20598;-36
2021/12/15 12:27:06;;;;;;;5.07;1.77;;;-2.90;97.60;;;;;;2211068;64;20417;-34
2021/12/15 12:29:33;;;;;;;11.07;2.13;;;-2.90;97.50;;;;;;2210956;64;20082;-35
2021/12/15 12:32:00;;;;;;;3.67;1.83;;;-2.80;97.30;;;;;;2207814;64;20073;-34
2021/12/15 12:34:26;;;;;;;9.30;1.70;;;-2.80;97.20;;;;;;2210788;64;20212;-34
2021/12/15 12:36:53;;;;;;;4.83;2.30;;;-2.90;97.20;;;;;;2210779;64;20108;-35
2021/12/15 12:39:22;;;;;;;8.77;2.27;;;-2.80;97.30;;;;;;2211023;64;20328;-33
2021/12/15 12:41:49;;;;;;;4.53;2.40;;;-2.90;97.50;;;;;;2210955;64;20221;-34
2021/12/15 12:44:20;;;;;;;6.90;2.30;;;-2.80;97.40;;;;;;2217674;64;20569;-39
2021/12/15 12:47:06;;;;;;;5.07;2.03;;;-2.80;97.40;;;;;;2214359;64;20080;-36
2021/12/15 12:58:01;;;;;;;3.90;1.97;;;-2.80;97.40;;;;;;2220194;64;20100;-37
2021/12/15 13:00:34;;;;;;;4.50;2.60;;;-2.80;97.40;;;;;;2223335;64;20100;-36
2021/12/15 13:03:04;;;;;;;5.60;2.40;;;-2.80;97.50;;;;;;2220062;64;20523;-43
2021/12/15 13:05:50;;;;;;;6.13;1.77;;;-2.80;97.40;;;;;;2220012;64;20221;-39
2021/12/15 13:08:34;;;;;;;3.83;2.17;;;-2.80;97.50;;;;;;2223544;64;20147;-34
2021/12/15 13:11:19;;;;;;;4.60;1.80;;;-2.80;97.50;;;;;;2220163;64;20095;-34
2021/12/15 13:14:06;;;;;;;2.95;1.05;;;-2.70;97.40;;;;;;2220160;64;20131;-34
2021/12/15 13:16:39;;;;;;;4.53;1.50;;;-2.70;97.50;;;;;;2223242;64;20097;-34
2021/12/15 13:19:17;;;;;;;5.33;2.53;;;-2.80;97.50;;;;;;2217069;64;20144;-34
2021/12/15 13:21:47;;;;;;;3.90;1.23;;;-2.80;97.40;;;;;;2220042;64;20119;-38
2021/12/15 13:30:37;;;;;;;2.87;1.67;;;-2.80;97.20;;;;;;2220094;64;20193;-38
2021/12/15 13:33:11;;;;;;;3.93;1.83;;;-2.80;97.30;;;;;;2223450;64;20087;-36
2021/12/15 13:35:46;;;;;;;3.27;1.73;;;-2.80;97.30;;;;;;2223246;64;20077;-38
2021/12/15 13:38:14;;;;;;;4.97;3.43;;;-2.80;97.30;;;;;;2223364;64;20104;-34
2021/12/15 13:40:59;;;;;;;8.60;3.57;;;-2.90;97.20;;;;;;2223437;64;20103;-38
2021/12/15 13:43:58;;;;;;;3.15;1.90;;;-2.80;97.40;;;;;;2223419;64;20152;-38
2021/12/15 13:46:55;;;;;;;11.10;3.97;;;-2.90;97.20;;;;;;2214566;64;20089;-35
2021/12/15 13:49:43;;;;;;;4.67;3.20;;;-2.90;97.30;;;;;;2220125;64;20164;-34
2021/12/15 13:52:17;;;;;;;5.30;3.27;;;-2.90;97.50;;;;;;2219958;64;20108;-33
2021/12/15 13:54:44;;;;;;;8.13;3.65;;;-2.80;97.60;;;;;;2219968;64;20099;-37
2021/12/15 13:57:13;;;;;;;7.03;3.70;;;-2.90;97.60;;;;;;2220128;64;20549;-42
2021/12/15 14:00:06;;;;;;;5.77;2.47;;;-2.90;97.80;;;;;;2220080;64;20092;-34
2021/12/15 14:02:41;;;;;;;3.90;1.90;;;-2.70;97.70;;;;;;2219786;64;20181;-34
2021/12/15 14:05:29;;;;;;;7.80;2.00;;;-2.70;97.60;;;;;;2220062;64;20644;-36
2021/12/15 14:08:10;;;;;;;3.07;2.13;;;-2.80;97.30;;;;;;2219900;64;20490;-34
2021/12/15 14:10:38;;;;;;;9.97;3.53;;;-2.80;97.50;;;;;;2216626;64;20126;-35
2021/12/15 14:13:05;;;;;;;6.63;3.30;;;-2.90;97.50;;;;;;2219870;64;20130;-35
2021/12/15 14:15:35;;;;;;;6.20;2.77;;;-2.80;97.80;;;;;;2219959;64;20081;-37
2021/12/15 14:18:05;;;;;;;6.77;2.97;;;-2.80;97.60;;;;;;2219926;64;20126;-37
2021/12/15 14:20:34;;;;;;;6.67;2.97;;;-2.90;97.50;;;;;;2219819;64;20103;-35
2021/12/15 14:23:06;;;;;;;10.07;4.20;;;-2.90;97.50;;;;;;2210901;64;20089;-36
2021/12/15 14:25:34;;;;;;;11.07;4.70;;;-2.90;97.40;;;;;;2207941;64;20144;-36
2021/12/15 14:28:24;;;;;;;5.63;2.57;;;-3.10;97.70;;;;;;2207797;64;20098;-34
2021/12/15 14:30:58;;;;;;;4.03;2.23;;;-3.10;97.90;;;;;;2207918;64;20137;-36
2021/12/15 14:33:34;;;;;;;7.40;4.10;;;-3.10;97.70;;;;;;2207752;64;20207;-33
2021/12/15 14:36:07;;;;;;;6.87;2.67;;;-3.20;97.80;;;;;;2211012;64;20520;-34
2021/12/15 14:38:39;;;;;;;11.70;4.53;;;-3.20;98.00;;;;;;2207854;64;20224;-37